Time;durP1;ratioP1;P1;durP2;ratioP2;P2;SDS_P1;SDS_P2;PMS_P1;PMS_P2;Temp;Humidity;BMP_temperature;BMP_pressure;BME280_temperature;BME280_humidity;BME280_pressure;Samples;Min_cycle;Max_cycle;Signal;HPM_P1;HPM_P2
2022/11/13 00:01:22;;;;;;;6.45;5.97;;;;;;;9.80;63.53;101555.47;4412039;32;33532;-92
2022/11/13 00:04:14;;;;;;;3.67;3.35;;;;;;;9.77;63.39;101548.47;4405650;32;32928;-91
2022/11/13 00:07:00;;;;;;;6.05;4.72;;;;;;;9.78;63.17;101544.06;4399894;32;32530;-91
2022/11/13 00:09:47;;;;;;;4.00;3.67;;;;;;;9.57;63.58;101534.66;4385273;32;32650;-91
2022/11/13 00:12:35;;;;;;;5.22;3.70;;;;;;;9.68;62.97;101540.66;4397834;32;32182;-91
2022/11/13 00:15:22;;;;;;;7.40;3.92;;;;;;;9.68;62.70;101545.94;4387867;32;33340;-91
2022/11/13 00:18:09;;;;;;;5.90;2.83;;;;;;;9.68;62.45;101538.00;4394872;32;32982;-91
2022/11/13 00:20:57;;;;;;;6.18;5.68;;;;;;;9.39;63.41;101547.12;4401735;32;32483;-91
2022/11/13 00:23:51;;;;;;;4.20;3.90;;;;;;;9.40;63.19;101550.66;4398242;32;32800;-91
2022/11/13 00:26:38;;;;;;;8.02;5.37;;;;;;;9.53;62.52;101551.38;4399788;32;33308;-90
2022/11/13 00:29:24;;;;;;;11.55;4.65;;;;;;;9.54;62.09;101547.84;4389509;32;33611;-91
2022/11/13 00:32:10;;;;;;;9.48;5.93;;;;;;;9.28;63.02;101559.56;4399342;32;32991;-90
2022/11/13 00:34:56;;;;;;;2.65;2.28;;;;;;;9.37;62.43;101551.56;4388416;32;33641;-91
2022/11/13 00:37:43;;;;;;;4.65;2.80;;;;;;;9.11;63.66;101554.47;4374108;32;34111;-90
2022/11/13 00:40:29;;;;;;;3.00;2.80;;;;;;;9.18;63.06;101555.28;4391657;32;33062;-90
2022/11/13 00:43:15;;;;;;;7.50;5.32;;;;;;;8.91;64.09;101552.00;4386989;32;32588;-91
2022/11/13 00:46:01;;;;;;;3.90;3.25;;;;;;;9.12;63.37;101560.62;4385947;32;32738;-93
2022/11/13 00:48:43;;;;;;;3.08;2.87;;;;;;;9.21;62.81;101552.63;4392778;32;33361;-92
2022/11/13 00:52:08;;;;;;;4.47;3.83;;;;;;;9.13;62.87;101546.56;4393686;32;33041;-93
2022/11/13 00:54:50;;;;;;;3.25;2.85;;;;;;;9.05;62.71;101553.66;4377560;32;33697;-92
2022/11/13 01:06:00;;;;;;;7.72;4.20;;;;;;;8.81;63.28;101539.81;4375222;32;33448;-90
2022/11/13 01:08:47;;;;;;;6.03;3.72;;;;;;;8.63;63.84;101545.22;4372937;32;32190;-90
2022/11/13 01:11:33;;;;;;;5.53;5.00;;;;;;;8.80;63.40;101545.09;4373382;32;33284;-90
2022/11/13 01:14:19;;;;;;;2.33;2.20;;;;;;;8.77;63.33;101538.09;4367145;32;33555;-90
2022/11/13 01:17:06;;;;;;;2.47;2.28;;;;;;;8.65;63.79;101538.22;4356873;32;32974;-89
2022/11/13 01:20:35;;;;;;;6.32;5.28;;;;;;;8.54;63.99;101540.03;4365522;32;33161;-88
2022/11/13 01:23:21;;;;;;;5.00;4.40;;;;;;;8.57;64.00;101546.16;4364362;32;32193;-89
2022/11/13 01:30:23;;;;;;;5.85;3.80;;;;;;;8.48;63.89;101538.31;4379496;32;34131;-91
2022/11/13 01:33:08;;;;;;;6.55;4.45;;;;;;;8.58;63.30;101524.19;4393863;32;32900;-94
2022/11/13 01:35:50;;;;;;;3.03;2.83;;;;;;;8.35;64.01;101519.06;4384160;32;32880;-91
2022/11/13 01:43:31;;;;;;;7.37;5.22;;;;;;;8.33;63.76;101523.47;4395370;32;32758;-91
2022/11/13 01:46:34;;;;;;;2.42;2.25;;;;;;;8.31;63.98;101521.72;4386749;32;33137;-92
2022/11/13 01:49:28;;;;;;;11.25;6.00;;;;;;;8.29;64.45;101521.75;4380534;32;32711;-92
2022/11/13 01:56:56;;;;;;;3.40;3.12;;;;;;;8.31;64.20;101525.28;4378858;32;34794;-90
2022/11/13 01:59:47;;;;;;;9.43;4.75;;;;;;;8.19;64.29;101502.53;4377168;32;32332;-89
2022/11/13 02:02:33;;;;;;;2.72;2.53;;;;;;;8.11;64.67;101508.72;4384168;32;34398;-89
2022/11/13 02:05:19;;;;;;;23.05;3.42;;;;;;;8.32;63.84;101498.06;4384571;32;32097;-88
2022/11/13 02:08:05;;;;;;;6.93;2.67;;;;;;;8.29;64.05;101497.19;4396032;32;32822;-88
2022/11/13 02:10:51;;;;;;;4.00;3.60;;;;;;;8.38;63.42;101492.78;4394138;32;33231;-89
2022/11/13 02:13:37;;;;;;;2.92;2.72;;;;;;;8.26;63.71;101490.22;4380313;32;33621;-88
2022/11/13 02:16:23;;;;;;;0.73;0.73;;;;;;;8.20;63.98;101495.50;4392885;32;33077;-88
2022/11/13 02:19:16;;;;;;;3.95;3.65;;;;;;;8.20;63.85;101490.22;4391521;32;32487;-88
2022/11/13 02:22:19;;;;;;;3.70;3.50;;;;;;;8.10;64.28;101491.19;4387059;32;33560;-88
2022/11/13 02:25:06;;;;;;;1.35;1.33;;;;;;;8.20;64.11;101491.09;4378530;32;32387;-89
2022/11/13 02:27:52;;;;;;;3.85;3.55;;;;;;;8.18;64.12;101490.25;4368067;32;33240;-88
2022/11/13 02:30:38;;;;;;;1.42;1.35;;;;;;;8.22;64.33;101488.47;4367978;32;34371;-88
2022/11/13 02:33:29;;;;;;;2.40;2.30;;;;;;;8.13;64.66;101489.41;4378522;32;32477;-89
2022/11/13 02:36:15;;;;;;;4.40;2.78;;;;;;;8.17;64.94;101479.75;4368024;32;32334;-89
2022/11/13 02:39:05;;;;;;;5.55;5.15;;;;;;;8.29;64.16;101476.16;4368063;32;32487;-91
2022/11/13 02:41:51;;;;;;;4.35;4.03;;;;;;;8.20;64.69;101482.34;4379182;32;34217;-89
2022/11/13 02:44:37;;;;;;;4.47;3.92;;;;;;;8.39;64.39;101476.09;4394350;32;33509;-89
2022/11/13 02:47:23;;;;;;;3.97;3.12;;;;;;;8.17;65.33;101479.75;4396121;32;32390;-89
2022/11/13 02:50:10;;;;;;;2.55;2.33;;;;;;;8.36;64.85;101472.59;4391217;32;32715;-89
2022/11/13 02:52:56;;;;;;;6.68;4.05;;;;;;;8.18;65.63;101476.22;4390622;32;33473;-89
2022/11/13 02:55:42;;;;;;;4.43;4.07;;;;;;;8.06;66.42;101469.28;4403840;32;32780;-89
2022/11/13 02:58:28;;;;;;;4.18;3.37;;;;;;;8.19;66.17;101481.47;4404065;32;33518;-89
2022/11/13 03:01:15;;;;;;;2.75;2.55;;;;;;;8.20;66.53;101477.06;4398184;32;32457;-89
2022/11/13 03:04:01;;;;;;;1.30;1.20;;;;;;;8.21;66.79;101486.72;4378806;32;33672;-89
2022/11/13 03:06:47;;;;;;;1.67;1.58;;;;;;;8.54;65.10;101485.63;4388297;32;34438;-89
2022/11/13 03:09:34;;;;;;;5.57;2.72;;;;;;;8.38;65.54;101490.13;4403943;32;33325;-89
2022/11/13 03:16:35;;;;;;;1.95;1.65;;;;;;;8.27;66.81;101494.59;4394403;32;35188;-90
2022/11/13 03:19:26;;;;;;;2.05;1.90;;;;;;;8.18;66.73;101486.75;4403601;32;32771;-90
2022/11/13 03:22:12;;;;;;;4.80;2.17;;;;;;;8.18;66.68;101490.25;4404185;32;32581;-93
2022/11/13 03:24:54;;;;;;;2.90;2.65;;;;;;;8.27;66.49;101484.06;4407526;32;32731;-92
2022/11/13 03:27:36;;;;;;;1.58;1.48;;;;;;;8.28;66.54;101490.19;4380051;32;33374;-91
2022/11/13 03:30:18;;;;;;;3.53;2.58;;;;;;;8.34;65.98;101485.75;4390850;32;33169;-91
2022/11/13 03:33:00;;;;;;;3.17;2.80;;;;;;;8.31;66.21;101485.78;4401961;32;32199;-92
2022/11/13 03:35:42;;;;;;;4.40;4.03;;;;;;;8.25;66.33;101490.22;4406743;32;32717;-91
2022/11/13 03:38:24;;;;;;;3.40;3.20;;;;;;;8.09;66.80;101484.19;4436029;32;33038;-90
2022/11/13 03:41:13;;;;;;;2.20;2.10;;;;;;;8.26;66.38;101489.31;4421612;32;33051;-94
2022/11/13 03:43:56;;;;;;;2.92;2.37;;;;;;;8.34;65.79;101487.50;4409884;32;32024;-93
2022/11/13 03:46:38;;;;;;;6.30;4.07;;;;;;;8.36;65.52;101484.03;4408367;32;34374;-92
2022/11/13 03:49:20;;;;;;;2.72;1.58;;;;;;;8.24;65.66;101484.06;4420239;32;33080;-88
2022/11/13 03:52:09;;;;;;;2.97;2.35;;;;;;;8.28;65.49;101490.19;4408104;32;33211;-88
2022/11/13 03:54:56;;;;;;;1.95;1.85;;;;;;;8.16;65.61;101485.88;4386713;32;32995;-88
2022/11/13 03:57:42;;;;;;;4.68;3.97;;;;;;;8.18;65.53;101481.50;4408160;32;33828;-87
2022/11/13 04:00:29;;;;;;;5.18;2.47;;;;;;;8.23;65.13;101482.34;4397543;32;33667;-88
2022/11/13 04:03:15;;;;;;;6.03;2.65;;;;;;;8.01;66.03;101475.47;4397149;32;32081;-87
2022/11/13 04:06:01;;;;;;;1.02;1.02;;;;;;;8.06;65.79;101485.06;4388334;32;33125;-87
2022/11/13 04:08:47;;;;;;;4.20;2.25;;;;;;;8.10;65.59;101480.66;4401992;32;31911;-88
2022/11/13 04:11:33;;;;;;;3.22;2.92;;;;;;;8.01;65.84;101480.72;4395762;32;33675;-87
2022/11/13 04:15:04;;;;;;;2.20;2.10;;;;;;;8.02;65.76;101485.97;4397442;32;32991;-87
2022/11/13 04:17:50;;;;;;;5.95;3.55;;;;;;;7.84;65.95;101479.06;4404859;32;32074;-87
2022/11/13 04:20:36;;;;;;;3.65;3.33;;;;;;;7.91;66.04;101483.41;4396755;32;32703;-89
2022/11/13 04:23:22;;;;;;;2.75;2.55;;;;;;;7.90;65.73;101481.66;4404329;32;33296;-88
2022/11/13 04:26:08;;;;;;;1.98;1.55;;;;;;;7.89;65.58;101476.41;4407800;32;32497;-88
2022/11/13 04:28:54;;;;;;;2.00;1.90;;;;;;;7.81;65.82;101472.97;4397269;32;32162;-89
2022/11/13 04:31:40;;;;;;;2.03;1.92;;;;;;;7.81;65.68;101479.09;4407793;32;33154;-88
2022/11/13 04:34:26;;;;;;;2.80;2.60;;;;;;;7.78;65.37;101489.59;4392655;32;33438;-88
2022/11/13 04:37:13;;;;;;;2.87;2.67;;;;;;;7.79;65.47;101486.12;4392613;32;32569;-88
2022/11/13 04:39:59;;;;;;;1.17;1.15;;;;;;;7.82;65.40;101486.09;4409026;32;33546;-88
2022/11/13 04:42:47;;;;;;;3.47;3.17;;;;;;;7.84;64.92;101483.47;4406730;32;34130;-90
2022/11/13 04:45:34;;;;;;;2.53;2.42;;;;;;;7.83;64.92;101477.34;4407809;32;33305;-90
2022/11/13 04:48:19;;;;;;;1.23;1.23;;;;;;;7.71;65.48;101482.66;4408004;32;33994;-88
2022/11/13 04:51:06;;;;;;;2.55;2.35;;;;;;;7.87;65.17;101478.16;4408365;32;33399;-88
2022/11/13 04:53:52;;;;;;;0.82;0.82;;;;;;;8.20;63.45;101475.31;4407884;32;33235;-89
2022/11/13 04:56:38;;;;;;;2.67;2.47;;;;;;;7.67;65.63;101470.41;4408141;32;34015;-89
2022/11/13 04:59:24;;;;;;;3.60;2.75;;;;;;;7.94;65.08;101474.63;4397273;32;33743;-90
2022/11/13 05:02:10;;;;;;;1.02;1.02;;;;;;;7.73;66.08;101470.34;4386696;32;32583;-89
2022/11/13 05:04:56;;;;;;;2.67;2.47;;;;;;;7.77;65.90;101477.34;4386701;32;33093;-89
2022/11/13 05:07:49;;;;;;;2.20;2.08;;;;;;;7.73;66.48;101475.62;4407569;32;33283;-89
2022/11/13 05:10:35;;;;;;;3.75;2.62;;;;;;;7.87;65.99;101473.78;4407650;32;32985;-89
2022/11/13 05:13:21;;;;;;;9.40;3.30;;;;;;;7.78;66.47;101479.09;4407729;32;33486;-90
2022/11/13 05:16:10;;;;;;;1.55;1.45;;;;;;;7.87;66.59;101476.41;4397060;32;33653;-89
2022/11/13 05:23:17;;;;;;;1.85;1.23;;;;;;;7.90;66.92;101478.16;4409196;32;34522;-90
2022/11/13 05:26:09;;;;;;;2.50;2.17;;;;;;;8.24;65.02;101468.28;4399665;32;33950;-88
2022/11/13 05:28:57;;;;;;;1.77;1.67;;;;;;;7.92;66.45;101472.00;4418205;32;32480;-89
2022/11/13 05:31:43;;;;;;;2.25;2.10;;;;;;;7.91;66.72;101475.50;4407562;32;32952;-89
2022/11/13 05:34:29;;;;;;;1.00;1.00;;;;;;;7.84;67.16;101475.56;4407371;32;34024;-88
2022/11/13 05:37:16;;;;;;;2.95;2.72;;;;;;;8.11;66.29;101479.78;4397366;32;32661;-90
2022/11/13 05:40:02;;;;;;;1.52;1.42;;;;;;;8.36;64.94;101469.97;4418968;32;32532;-90
2022/11/13 05:42:48;;;;;;;2.37;1.35;;;;;;;7.98;66.52;101472.88;4386561;32;33310;-87
2022/11/13 05:45:35;;;;;;;1.95;1.85;;;;;;;8.01;66.70;101472.81;4396566;32;33511;-88
2022/11/13 05:48:21;;;;;;;1.65;1.20;;;;;;;7.96;67.36;101471.09;4396583;32;32126;-87
2022/11/13 05:51:13;;;;;;;0.68;0.68;;;;;;;8.25;65.98;101459.50;4397082;32;34543;-87
2022/11/13 05:54:00;;;;;;;2.45;1.37;;;;;;;8.01;67.11;101464.94;4385730;32;34111;-87
2022/11/13 05:56:46;;;;;;;1.17;1.17;;;;;;;7.95;67.10;101465.84;4406815;32;34050;-87
2022/11/13 05:59:32;;;;;;;1.40;1.40;;;;;;;8.02;67.51;101464.91;4396571;32;33275;-88
2022/11/13 06:02:18;;;;;;;2.90;2.10;;;;;;;8.19;66.55;101454.28;4396968;32;33888;-88
2022/11/13 06:05:05;;;;;;;2.33;0.80;;;;;;;8.08;67.21;101449.12;4396420;32;33320;-88
2022/11/13 06:07:51;;;;;;;1.75;1.20;;;;;;;8.10;67.32;101454.34;4396741;32;33878;-89
2022/11/13 06:10:38;;;;;;;2.05;1.52;;;;;;;8.04;67.67;101459.66;4407192;32;32742;-89
2022/11/13 06:13:24;;;;;;;0.50;0.50;;;;;;;8.16;67.16;101456.94;4407407;32;32506;-89
2022/11/13 06:16:14;;;;;;;0.32;0.32;;;;;;;8.07;67.64;101459.63;4406814;32;32796;-89
2022/11/13 06:19:03;;;;;;;2.12;1.65;;;;;;;8.07;67.95;101464.88;4385754;32;32607;-88
2022/11/13 06:21:50;;;;;;;1.40;1.37;;;;;;;8.27;67.67;101457.75;4417496;32;31259;-89
2022/11/13 06:24:36;;;;;;;1.35;1.30;;;;;;;8.36;66.97;101462.97;4396229;32;33953;-88
2022/11/13 06:27:38;;;;;;;2.17;2.05;;;;;;;8.31;67.21;101472.62;4407263;32;33644;-88
2022/11/13 06:30:24;;;;;;;2.03;1.85;;;;;;;8.76;65.51;101456.47;4406587;32;33932;-88
2022/11/13 06:33:11;;;;;;;0.45;0.45;;;;;;;8.42;66.45;101462.03;4395863;32;32954;-88
2022/11/13 06:35:57;;;;;;;0.43;0.43;;;;;;;8.61;66.13;101462.75;4395837;32;34155;-88
2022/11/13 06:38:43;;;;;;;1.27;1.20;;;;;;;8.72;65.76;101467.03;4397958;32;33431;-88
2022/11/13 06:41:30;;;;;;;1.80;1.70;;;;;;;8.48;66.32;101466.38;4417159;32;33321;-88
2022/11/13 06:44:16;;;;;;;2.78;2.10;;;;;;;8.50;66.90;101469.84;4395737;32;33114;-88
2022/11/13 06:47:02;;;;;;;2.20;2.00;;;;;;;8.58;66.31;101468.03;4406510;32;34298;-88
2022/11/13 06:49:48;;;;;;;0.57;0.57;;;;;;;8.51;66.99;101463.72;4406047;32;32599;-88
2022/11/13 06:52:34;;;;;;;1.40;1.33;;;;;;;8.78;65.58;101471.34;4395866;32;33081;-87
2022/11/13 06:55:20;;;;;;;1.73;1.62;;;;;;;8.81;65.39;101471.34;4395898;32;32737;-88
2022/11/13 06:58:07;;;;;;;2.80;2.20;;;;;;;8.63;66.31;101476.75;4394570;32;33985;-88
2022/11/13 07:00:54;;;;;;;2.55;2.37;;;;;;;8.69;65.65;101480.22;4394744;32;33230;-88
2022/11/13 07:03:36;;;;;;;3.30;2.03;;;;;;;8.62;65.47;101481.16;4395986;32;33019;-90
2022/11/13 07:06:21;;;;;;;1.80;1.70;;;;;;;8.05;67.47;101499.09;4391776;32;33346;-87
2022/11/13 07:09:07;;;;;;;2.12;1.98;;;;;;;8.05;68.54;101492.97;4382845;32;33132;-87
2022/11/13 07:11:53;;;;;;;2.80;2.50;;;;;;;8.06;68.26;101497.34;4382784;32;32871;-89
2022/11/13 07:14:39;;;;;;;2.37;2.20;;;;;;;7.94;69.12;101496.56;4383426;32;34320;-89
2022/11/13 07:17:27;;;;;;;6.87;3.33;;;;;;;7.95;69.29;101498.28;4382674;32;32023;-88
2022/11/13 07:20:15;;;;;;;2.97;2.78;;;;;;;8.39;68.27;101489.25;4393702;32;33799;-88
2022/11/13 07:23:02;;;;;;;2.65;2.45;;;;;;;8.50;68.28;101501.44;4382595;32;33007;-88
2022/11/13 07:25:48;;;;;;;1.90;1.80;;;;;;;8.90;66.50;101492.31;4382717;32;33263;-88
2022/11/13 07:28:34;;;;;;;3.17;2.58;;;;;;;8.90;66.22;101489.69;4393278;32;33423;-88
2022/11/13 07:31:20;;;;;;;2.22;2.03;;;;;;;8.98;65.91;101490.50;4382578;32;32895;-88
2022/11/13 07:34:06;;;;;;;4.30;3.92;;;;;;;8.85;66.32;101488.00;4383222;32;33680;-88
2022/11/13 07:36:52;;;;;;;2.55;2.42;;;;;;;8.53;67.92;101491.78;4382705;32;32763;-89
2022/11/13 07:39:38;;;;;;;4.10;3.80;;;;;;;8.50;68.24;101490.91;4382834;32;32957;-88
2022/11/13 07:42:25;;;;;;;1.12;1.12;;;;;;;8.41;69.27;101491.88;4382553;32;33356;-88
2022/11/13 07:45:11;;;;;;;3.12;2.53;;;;;;;9.03;67.39;101486.94;4382638;32;33879;-89
2022/11/13 07:48:01;;;;;;;2.22;2.08;;;;;;;8.96;67.25;101486.97;4393546;32;36484;-89
2022/11/13 07:50:47;;;;;;;0.43;0.43;;;;;;;8.68;68.87;101501.28;4382547;32;32239;-88
2022/11/13 07:53:34;;;;;;;3.92;2.97;;;;;;;9.07;67.93;101489.53;4382344;32;32520;-89
2022/11/13 07:56:21;;;;;;;2.35;2.20;;;;;;;9.28;67.38;101483.12;4389456;32;33353;-88
2022/11/13 07:59:08;;;;;;;1.60;1.50;;;;;;;9.15;67.93;101500.84;4394077;32;33702;-91
2022/11/13 08:01:50;;;;;;;1.12;1.12;;;;;;;9.07;68.45;101489.53;4406529;32;32668;-91
2022/11/13 08:04:37;;;;;;;3.97;2.30;;;;;;;9.23;68.79;101477.03;4386941;32;33435;-90
2022/11/13 08:07:26;;;;;;;5.20;2.17;;;;;;;9.49;68.14;101482.00;4416050;32;33090;-90
2022/11/13 08:10:15;;;;;;;2.90;2.70;;;;;;;9.61;67.20;101478.34;4390474;32;33346;-90
2022/11/13 08:13:09;;;;;;;1.33;1.33;;;;;;;9.40;67.93;101472.47;4389883;32;33257;-90
2022/11/13 08:15:58;;;;;;;1.08;1.08;;;;;;;9.30;69.16;101488.38;4396395;32;33037;-90
2022/11/13 08:18:44;;;;;;;6.03;5.18;;;;;;;9.39;69.51;101483.00;4390300;32;33277;-90
2022/11/13 08:21:30;;;;;;;3.78;3.58;;;;;;;9.56;69.33;101482.81;4387007;32;32759;-88
2022/11/13 08:24:16;;;;;;;3.00;2.80;;;;;;;9.88;68.29;101480.63;4395951;32;33123;-89
2022/11/13 08:27:07;;;;;;;8.07;5.87;;;;;;;10.11;67.24;101477.66;4391375;32;33096;-90
2022/11/13 08:29:53;;;;;;;1.40;1.30;;;;;;;9.80;68.33;101481.59;4397014;32;33391;-89
2022/11/13 08:32:40;;;;;;;2.08;1.98;;;;;;;9.72;69.38;101489.62;4394924;32;32383;-88
2022/11/13 08:35:26;;;;;;;3.20;2.58;;;;;;;9.83;69.50;101471.03;4399304;32;32287;-89
2022/11/13 08:38:15;;;;;;;2.65;2.50;;;;;;;10.06;69.00;101483.84;4381460;32;34412;-90
2022/11/13 08:41:04;;;;;;;1.35;1.33;;;;;;;9.92;69.87;101477.03;4388129;32;33234;-90
2022/11/13 08:44:11;;;;;;;6.68;3.60;;;;;;;10.00;69.67;101463.72;4394880;32;32465;-89
2022/11/13 08:46:57;;;;;;;3.28;2.97;;;;;;;10.48;68.05;101466.50;4415419;32;33338;-89
2022/11/13 08:49:43;;;;;;;2.20;2.05;;;;;;;10.29;69.04;101470.34;4394459;32;33507;-89
2022/11/13 08:52:29;;;;;;;1.48;1.37;;;;;;;10.37;69.12;101466.69;4406679;32;33986;-89
2022/11/13 08:55:16;;;;;;;4.05;2.70;;;;;;;10.72;68.16;101467.84;4390784;32;32745;-89
2022/11/13 08:58:04;;;;;;;3.17;2.97;;;;;;;10.83;67.85;101463.28;4385480;32;33771;-88
2022/11/13 09:00:52;;;;;;;3.90;2.90;;;;;;;11.09;67.04;101453.97;4390706;32;32855;-90
2022/11/13 09:03:39;;;;;;;2.75;2.30;;;;;;;11.07;66.77;101461.06;4394170;32;32677;-90
2022/11/13 09:06:25;;;;;;;1.65;1.55;;;;;;;11.06;67.33;101475.16;4391036;32;34868;-90
2022/11/13 09:09:11;;;;;;;2.78;2.30;;;;;;;11.24;65.23;101466.88;4404921;32;32347;-91
2022/11/13 09:11:57;;;;;;;3.53;3.33;;;;;;;10.80;67.40;101470.38;4391884;32;34648;-90
2022/11/13 09:14:43;;;;;;;1.20;1.08;;;;;;;10.90;66.79;101467.53;4393435;32;32635;-90
2022/11/13 09:17:30;;;;;;;1.20;1.10;;;;;;;10.56;68.39;101474.31;4385503;32;33768;-89
2022/11/13 09:20:16;;;;;;;8.38;3.97;;;;;;;10.83;68.50;101472.97;4408895;32;33411;-90
2022/11/13 09:23:08;;;;;;;3.35;3.00;;;;;;;11.04;68.14;101462.00;4399945;32;34205;-90
2022/11/13 09:25:55;;;;;;;2.55;1.95;;;;;;;11.21;68.43;101459.91;4398617;32;34215;-90
2022/11/13 09:28:42;;;;;;;2.30;2.08;;;;;;;11.12;70.40;101464.50;4398659;32;33036;-90
2022/11/13 09:31:28;;;;;;;3.65;3.25;;;;;;;11.31;70.80;101465.88;4397626;32;32738;-90
2022/11/13 09:34:15;;;;;;;2.40;2.25;;;;;;;11.40;70.49;101460.41;4390632;32;33745;-89
2022/11/13 09:37:01;;;;;;;0.98;0.98;;;;;;;11.38;69.48;101462.19;4388548;32;34181;-90
2022/11/13 09:39:47;;;;;;;4.30;3.90;;;;;;;11.87;68.37;101458.53;4403685;32;33100;-89
2022/11/13 09:42:35;;;;;;;0.82;0.82;;;;;;;11.53;67.44;101451.28;4389956;32;33599;-90
2022/11/13 09:45:22;;;;;;;6.05;5.05;;;;;;;11.44;68.80;101448.84;4392407;32;34358;-90
2022/11/13 09:48:33;;;;;;;5.00;3.12;;;;;;;11.66;68.21;101441.31;4386432;32;34023;-90
2022/11/13 09:51:23;;;;;;;2.92;2.58;;;;;;;12.04;68.98;101437.81;4391079;32;33622;-90
2022/11/13 09:54:13;;;;;;;3.08;2.33;;;;;;;12.64;67.84;101435.47;4402430;32;32514;-95
2022/11/13 09:57:36;;;;;;;2.47;2.25;;;;;;;13.24;64.86;101430.28;4413827;32;34024;-96
2022/11/13 10:00:20;;;;;;;3.00;2.80;;;;;;;12.96;65.07;101422.22;4406640;32;32431;-94
2022/11/13 10:03:24;;;;;;;6.28;3.05;;;;;;;13.41;62.49;101424.50;4405202;32;33016;-95
2022/11/13 10:06:39;;;;;;;4.80;3.03;;;;;;;12.41;66.17;101420.16;4393722;32;33042;-84
2022/11/13 10:09:32;;;;;;;4.87;2.17;;;;;;;12.41;68.44;101417.53;4383417;32;33243;-84
2022/11/13 10:12:19;;;;;;;2.90;2.67;;;;;;;13.21;63.70;101402.97;4378382;32;32296;-84
2022/11/13 10:15:09;;;;;;;4.57;3.65;;;;;;;12.45;66.90;101408.59;4377774;32;34432;-84
2022/11/13 10:18:02;;;;;;;5.15;4.75;;;;;;;12.84;65.74;101404.00;4401743;32;33016;-84
2022/11/13 10:20:53;;;;;;;4.47;2.95;;;;;;;12.85;66.70;101400.44;4393304;32;33673;-84
2022/11/13 10:23:38;;;;;;;3.55;3.22;;;;;;;13.21;65.50;101393.22;4378395;32;33779;-84
2022/11/13 10:26:27;;;;;;;2.78;1.67;;;;;;;13.22;65.05;101383.50;4377783;32;33870;-84
2022/11/13 10:29:18;;;;;;;5.97;5.35;;;;;;;12.99;66.38;101381.50;4386831;32;33031;-84
2022/11/13 10:32:25;;;;;;;5.12;3.70;;;;;;;12.91;67.36;101381.69;4403831;32;32115;-96
2022/11/13 10:35:33;;;;;;;6.40;3.40;;;;;;;13.34;66.36;101372.56;4366285;32;33103;-96
2022/11/13 10:38:29;;;;;;;3.78;3.12;;;;;;;13.20;68.60;101380.00;4354216;32;33012;-91
2022/11/13 10:41:32;;;;;;;3.78;3.47;;;;;;;13.64;65.92;101370.72;4378437;32;32912;-91
2022/11/13 10:44:26;;;;;;;1.73;1.65;;;;;;;13.38;66.37;101360.03;4347131;32;33422;-92
2022/11/13 10:47:18;;;;;;;4.10;3.42;;;;;;;14.16;63.65;101346.91;4364355;32;33341;-92
2022/11/13 10:50:21;;;;;;;2.10;2.00;;;;;;;14.39;62.65;101349.66;4392732;32;33333;-91
2022/11/13 10:53:16;;;;;;;3.35;3.12;;;;;;;14.27;63.57;101353.59;4385237;32;33034;-90
2022/11/13 10:56:12;;;;;;;2.40;2.30;;;;;;;14.54;62.50;101343.84;4390296;32;31779;-91
2022/11/13 10:59:12;;;;;;;7.03;5.12;;;;;;;14.31;62.29;101336.62;4391173;32;34051;-91
2022/11/13 11:02:10;;;;;;;3.92;3.00;;;;;;;14.83;61.08;101339.25;4391633;32;33131;-90
2022/11/13 11:05:15;;;;;;;2.65;2.45;;;;;;;14.18;62.66;101334.44;4402076;32;32900;-90
2022/11/13 11:08:07;;;;;;;4.80;4.35;;;;;;;14.68;61.93;101327.38;4389745;32;33204;-91
2022/11/13 11:14:41;;;;;;;3.97;3.67;;;;;;;15.48;59.03;101316.38;4381673;32;33907;-91
2022/11/13 11:17:42;;;;;;;4.20;2.85;;;;;;;15.45;59.06;101317.34;4381085;32;33686;-90
2022/11/13 11:21:00;;;;;;;5.47;3.87;;;;;;;14.97;61.05;101309.47;4400123;32;32869;-90
2022/11/13 11:24:02;;;;;;;2.10;2.00;;;;;;;15.15;60.54;101307.91;4390161;32;32976;-90
2022/11/13 11:27:02;;;;;;;5.55;3.85;;;;;;;14.76;61.75;101309.34;4401531;32;34231;-91
2022/11/13 11:30:05;;;;;;;14.63;5.07;;;;;;;15.09;61.18;101312.53;4378462;32;33650;-90
2022/11/13 11:32:59;;;;;;;6.03;4.53;;;;;;;15.36;60.25;101307.06;4381880;32;31435;-90
2022/11/13 11:35:55;;;;;;;4.15;3.37;;;;;;;15.91;58.25;101299.53;4380859;32;32384;-90
2022/11/13 11:38:52;;;;;;;5.32;4.25;;;;;;;16.22;57.06;101293.75;4381474;32;33709;-90
2022/11/13 11:41:50;;;;;;;4.75;4.40;;;;;;;15.78;58.50;101293.84;4390528;32;33500;-90
2022/11/13 11:45:09;;;;;;;11.88;6.85;;;;;;;16.35;56.60;101288.75;4388785;32;33512;-90
2022/11/13 11:47:57;;;;;;;6.95;5.00;;;;;;;15.80;59.66;101297.28;4396297;32;33364;-90
2022/11/13 11:50:55;;;;;;;8.88;5.50;;;;;;;15.86;59.53;101291.75;4384725;32;32918;-90
2022/11/13 11:54:20;;;;;;;3.47;3.20;;;;;;;16.61;56.37;101277.78;4390159;32;33698;-90
2022/11/13 11:57:32;;;;;;;8.98;6.12;;;;;;;16.25;57.09;101266.12;4395901;32;34103;-90
2022/11/13 12:00:19;;;;;;;12.00;4.55;;;;;;;16.27;57.61;101264.22;4382968;32;33843;-90
2022/11/13 12:03:33;;;;;;;8.95;4.72;;;;;;;16.51;56.03;101267.59;4395891;32;33515;-89
2022/11/13 12:06:48;;;;;;;4.35;3.97;;;;;;;16.33;56.62;101263.94;4399207;32;33941;-90
2022/11/13 12:09:50;;;;;;;4.37;3.00;;;;;;;16.77;54.88;101255.78;4401646;32;33982;-90
2022/11/13 12:12:54;;;;;;;20.12;5.10;;;;;;;16.45;54.94;101244.75;4396156;32;33458;-89
2022/11/13 12:15:49;;;;;;;5.40;4.93;;;;;;;16.48;55.48;101241.09;4388883;32;32561;-89
2022/11/13 12:18:48;;;;;;;3.05;2.83;;;;;;;16.28;57.05;101236.63;4388222;32;32996;-90
2022/11/13 12:21:51;;;;;;;4.30;3.92;;;;;;;16.50;55.28;101224.09;4409933;32;33374;-89
2022/11/13 12:24:59;;;;;;;4.60;4.12;;;;;;;16.48;54.76;101222.44;4400343;32;32516;-90
2022/11/13 12:28:06;;;;;;;7.25;3.42;;;;;;;16.81;54.08;101214.72;4387165;32;32764;-90
2022/11/13 12:31:03;;;;;;;3.05;2.75;;;;;;;16.91;53.21;101216.00;4400080;32;33104;-90
2022/11/13 12:34:00;;;;;;;6.22;4.22;;;;;;;16.50;53.63;101213.41;4398069;32;33378;-89
2022/11/13 12:36:47;;;;;;;6.00;2.90;;;;;;;16.64;53.50;101202.97;4386943;32;33017;-90
2022/11/13 12:39:59;;;;;;;2.08;1.92;;;;;;;16.73;52.85;101204.38;4394239;32;32611;-90
2022/11/13 12:43:07;;;;;;;5.07;2.65;;;;;;;16.24;54.52;101200.44;4389373;32;32007;-90
2022/11/13 12:45:57;;;;;;;3.90;3.15;;;;;;;15.53;56.05;101191.94;4386933;32;32686;-89
2022/11/13 12:48:46;;;;;;;9.05;3.65;;;;;;;15.56;55.87;101197.97;4389653;32;35221;-90
2022/11/13 12:51:53;;;;;;;3.67;3.20;;;;;;;15.84;54.75;101196.84;4393553;32;32208;-89
2022/11/13 12:54:40;;;;;;;1.92;1.60;;;;;;;14.95;57.07;101195.16;4386980;32;33100;-90
2022/11/13 12:57:26;;;;;;;5.32;1.90;;;;;;;14.81;58.24;101202.81;4385928;32;33656;-91
2022/11/13 13:00:27;;;;;;;3.80;3.28;;;;;;;15.16;56.90;101196.09;4388515;32;32596;-90
2022/11/13 13:03:40;;;;;;;1.83;1.73;;;;;;;15.13;56.25;101200.69;4399842;32;33113;-90
2022/11/13 13:07:01;;;;;;;3.20;2.87;;;;;;;15.30;56.13;101200.88;4386898;32;33562;-93
2022/11/13 13:09:49;;;;;;;1.85;1.60;;;;;;;15.58;54.95;101188.16;4380377;32;32814;-94
2022/11/13 13:12:57;;;;;;;3.37;3.05;;;;;;;15.29;56.23;101193.81;4388951;32;33061;-93
2022/11/13 13:15:42;;;;;;;4.55;2.55;;;;;;;15.33;55.80;101183.00;4395367;32;32671;-93
2022/11/13 13:18:41;;;;;;;2.83;1.62;;;;;;;14.83;57.38;101185.87;4386885;32;32342;-89
2022/11/13 13:21:39;;;;;;;3.10;2.53;;;;;;;14.98;56.84;101181.75;4373200;32;33060;-89
2022/11/13 13:24:35;;;;;;;5.55;1.83;;;;;;;15.41;55.90;101172.00;4387449;32;33088;-89
2022/11/13 13:27:26;;;;;;;2.92;2.75;;;;;;;15.85;54.63;101178.09;4377479;32;34154;-89
2022/11/13 13:30:43;;;;;;;1.48;1.37;;;;;;;15.78;54.69;101182.00;4373122;32;31954;-89
2022/11/13 13:33:43;;;;;;;1.90;1.73;;;;;;;14.85;56.76;101191.12;4376063;32;32665;-89
2022/11/13 13:36:38;;;;;;;3.40;2.72;;;;;;;15.33;55.84;101174.09;4373971;32;33746;-89
2022/11/13 13:39:32;;;;;;;3.08;2.75;;;;;;;15.03;56.74;101182.44;4369331;32;33577;-88
2022/11/13 13:42:52;;;;;;;5.40;2.87;;;;;;;15.06;57.25;101178.78;4365318;32;31974;-89
2022/11/13 13:46:16;;;;;;;3.00;2.67;;;;;;;15.36;56.56;101166.00;4363790;32;33357;-89
2022/11/13 13:49:08;;;;;;;3.10;2.90;;;;;;;15.33;56.49;101168.78;4364234;32;33482;-89
2022/11/13 13:51:56;;;;;;;2.90;2.58;;;;;;;15.56;55.96;101163.38;4366257;32;34408;-89
2022/11/13 13:54:44;;;;;;;3.03;2.28;;;;;;;15.73;55.37;101161.81;4381879;32;31810;-89